sensor_id;sensor_type;location;lat;lon;timestamp;temperature;humidity
11824;DHT22;5969;50.780;7.726;2023-04-25T07:10:03;7.00;99.90
11824;DHT22;5969;50.780;7.726;2023-04-25T07:12:32;7.20;99.90
11824;DHT22;5969;50.780;7.726;2023-04-25T07:15:07;7.30;99.90
11824;DHT22;5969;50.780;7.726;2023-04-25T07:17:46;7.30;99.90
11824;DHT22;5969;50.780;7.726;2023-04-25T07:20:33;7.30;99.90
11824;DHT22;5969;50.780;7.726;2023-04-25T07:23:03;7.50;99.90
11824;DHT22;5969;50.780;7.726;2023-04-25T07:25:40;7.60;99.90
11824;DHT22;5969;50.780;7.726;2023-04-25T07:28:11;7.80;99.90
11824;DHT22;5969;50.780;7.726;2023-04-25T07:30:41;7.80;99.90
11824;DHT22;5969;50.780;7.726;2023-04-25T07:33:13;7.80;99.90
11824;DHT22;5969;50.780;7.726;2023-04-25T07:35:46;8.00;99.90
11824;DHT22;5969;50.780;7.726;2023-04-25T07:38:32;8.20;99.90
11824;DHT22;5969;50.780;7.726;2023-04-25T07:41:14;8.30;99.90
11824;DHT22;5969;50.780;7.726;2023-04-25T07:44:29;8.50;99.90
11824;DHT22;5969;50.780;7.726;2023-04-25T07:47:08;8.60;99.90
11824;DHT22;5969;50.780;7.726;2023-04-25T07:49:42;8.50;99.90
11824;DHT22;5969;50.780;7.726;2023-04-25T07:52:12;8.30;99.90
11824;DHT22;5969;50.780;7.726;2023-04-25T07:55:09;8.20;99.90
11824;DHT22;5969;50.780;7.726;2023-04-25T07:57:46;8.30;99.90
11824;DHT22;5969;50.780;7.726;2023-04-25T08:00:26;8.50;99.90
11824;DHT22;5969;50.780;7.726;2023-04-25T08:03:04;8.70;99.90
11824;DHT22;5969;50.780;7.726;2023-04-25T08:05:40;8.80;99.90
11824;DHT22;5969;50.780;7.726;2023-04-25T08:08:36;8.70;99.90
11824;DHT22;5969;50.780;7.726;2023-04-25T08:11:27;8.70;99.90
11824;DHT22;5969;50.780;7.726;2023-04-25T08:14:17;8.60;99.90
11824;DHT22;5969;50.780;7.726;2023-04-25T08:16:58;8.60;99.90
11824;DHT22;5969;50.780;7.726;2023-04-25T08:19:31;8.60;99.90
11824;DHT22;5969;50.780;7.726;2023-04-25T08:22:03;8.70;99.90
11824;DHT22;5969;50.780;7.726;2023-04-25T08:24:39;9.10;99.90
11824;DHT22;5969;50.780;7.726;2023-04-25T08:27:30;9.60;99.90
11824;DHT22;5969;50.780;7.726;2023-04-25T08:30:31;10.00;99.90
11824;DHT22;5969;50.780;7.726;2023-04-25T08:33:02;9.90;99.90
11824;DHT22;5969;50.780;7.726;2023-04-25T08:35:59;9.50;99.90
11824;DHT22;5969;50.780;7.726;2023-04-25T08:38:50;9.30;99.90
11824;DHT22;5969;50.780;7.726;2023-04-25T08:44:44;8.90;99.90
11824;DHT22;5969;50.780;7.726;2023-04-25T08:47:25;8.60;99.90
11824;DHT22;5969;50.780;7.726;2023-04-25T08:50:01;8.50;99.90
11824;DHT22;5969;50.780;7.726;2023-04-25T08:52:37;8.30;99.90
11824;DHT22;5969;50.780;7.726;2023-04-25T08:55:29;8.30;99.90
11824;DHT22;5969;50.780;7.726;2023-04-25T08:58:08;8.40;99.90
11824;DHT22;5969;50.780;7.726;2023-04-25T09:00:42;8.50;99.90
11824;DHT22;5969;50.780;7.726;2023-04-25T09:03:47;8.40;99.90
11824;DHT22;5969;50.780;7.726;2023-04-25T09:06:21;8.30;99.90
11824;DHT22;5969;50.780;7.726;2023-04-25T09:08:58;8.50;99.90
11824;DHT22;5969;50.780;7.726;2023-04-25T09:11:43;8.60;99.90
11824;DHT22;5969;50.780;7.726;2023-04-25T09:14:22;8.90;99.90
11824;DHT22;5969;50.780;7.726;2023-04-25T09:17:02;9.00;99.90
11824;DHT22;5969;50.780;7.726;2023-04-25T09:19:39;9.10;99.90
11824;DHT22;5969;50.780;7.726;2023-04-25T09:25:02;9.90;99.90
11824;DHT22;5969;50.780;7.726;2023-04-25T09:27:36;10.30;99.90
11824;DHT22;5969;50.780;7.726;2023-04-25T09:30:32;10.10;99.90
11824;DHT22;5969;50.780;7.726;2023-04-25T09:33:09;10.20;99.90
11824;DHT22;5969;50.780;7.726;2023-04-25T09:35:44;10.30;99.90
11824;DHT22;5969;50.780;7.726;2023-04-25T09:38:18;9.90;99.90
11824;DHT22;5969;50.780;7.726;2023-04-25T09:40:49;9.50;99.90
11824;DHT22;5969;50.780;7.726;2023-04-25T09:43:26;9.00;99.90
11824;DHT22;5969;50.780;7.726;2023-04-25T09:46:01;8.90;99.90
11824;DHT22;5969;50.780;7.726;2023-04-25T09:48:37;8.80;99.90
11824;DHT22;5969;50.780;7.726;2023-04-25T09:51:54;8.50;99.90
11824;DHT22;5969;50.780;7.726;2023-04-25T09:54:09;8.50;99.90
11824;DHT22;5969;50.780;7.726;2023-04-25T09:56:43;8.40;99.90
11824;DHT22;5969;50.780;7.726;2023-04-25T09:59:20;8.40;99.90
11824;DHT22;5969;50.780;7.726;2023-04-25T10:02:15;8.40;99.90
11824;DHT22;5969;50.780;7.726;2023-04-25T10:04:48;8.40;99.90
11824;DHT22;5969;50.780;7.726;2023-04-25T10:07:43;8.30;99.90
11824;DHT22;5969;50.780;7.726;2023-04-25T10:10:14;8.40;99.90
11824;DHT22;5969;50.780;7.726;2023-04-25T10:12:49;8.50;99.90
11824;DHT22;5969;50.780;7.726;2023-04-25T10:15:20;8.60;99.90
11824;DHT22;5969;50.780;7.726;2023-04-25T10:17:54;8.70;99.90
11824;DHT22;5969;50.780;7.726;2023-04-25T10:20:23;8.80;99.90
11824;DHT22;5969;50.780;7.726;2023-04-25T10:23:03;8.90;99.90
11824;DHT22;5969;50.780;7.726;2023-04-25T10:25:47;9.00;99.90
11824;DHT22;5969;50.780;7.726;2023-04-25T10:28:24;9.20;99.90
11824;DHT22;5969;50.780;7.726;2023-04-25T10:30:58;9.50;99.90
11824;DHT22;5969;50.780;7.726;2023-04-25T10:33:34;10.10;99.90
11824;DHT22;5969;50.780;7.726;2023-04-25T10:36:13;10.80;99.90
11824;DHT22;5969;50.780;7.726;2023-04-25T10:38:55;11.20;97.40
11824;DHT22;5969;50.780;7.726;2023-04-25T10:41:53;11.20;97.90
11824;DHT22;5969;50.780;7.726;2023-04-25T10:44:38;11.80;98.30
11824;DHT22;5969;50.780;7.726;2023-04-25T10:47:23;12.00;97.00
11824;DHT22;5969;50.780;7.726;2023-04-25T10:50:35;11.80;96.80
11824;DHT22;5969;50.780;7.726;2023-04-25T10:53:34;11.20;96.00
11824;DHT22;5969;50.780;7.726;2023-04-25T10:56:33;10.90;96.60
11824;DHT22;5969;50.780;7.726;2023-04-25T10:59:14;11.00;97.30
11824;DHT22;5969;50.780;7.726;2023-04-25T11:01:56;10.50;96.50
11824;DHT22;5969;50.780;7.726;2023-04-25T11:04:35;10.80;97.80
11824;DHT22;5969;50.780;7.726;2023-04-25T11:07:10;11.10;97.60
11824;DHT22;5969;50.780;7.726;2023-04-25T11:09:48;10.90;97.50
11824;DHT22;5969;50.780;7.726;2023-04-25T11:12:29;10.60;97.40
11824;DHT22;5969;50.780;7.726;2023-04-25T11:15:08;9.90;98.00
11824;DHT22;5969;50.780;7.726;2023-04-25T11:17:45;9.50;99.90
11824;DHT22;5969;50.780;7.726;2023-04-25T11:20:27;9.20;99.90
11824;DHT22;5969;50.780;7.726;2023-04-25T11:23:02;8.90;99.90
11824;DHT22;5969;50.780;7.726;2023-04-25T11:25:40;8.90;99.90
11824;DHT22;5969;50.780;7.726;2023-04-25T11:28:24;9.10;99.90
11824;DHT22;5969;50.780;7.726;2023-04-25T11:30:58;9.40;99.90
11824;DHT22;5969;50.780;7.726;2023-04-25T11:33:30;9.80;99.90
11824;DHT22;5969;50.780;7.726;2023-04-25T11:36:18;10.30;99.90
11824;DHT22;5969;50.780;7.726;2023-04-25T11:39:01;10.80;99.90
11824;DHT22;5969;50.780;7.726;2023-04-25T11:41:47;11.00;99.90
11824;DHT22;5969;50.780;7.726;2023-04-25T11:44:33;10.70;99.80
11824;DHT22;5969;50.780;7.726;2023-04-25T11:47:11;10.40;99.20
11824;DHT22;5969;50.780;7.726;2023-04-25T11:49:50;10.30;98.90
11824;DHT22;5969;50.780;7.726;2023-04-25T11:52:39;10.60;99.10
11824;DHT22;5969;50.780;7.726;2023-04-25T11:55:34;11.10;99.90
11824;DHT22;5969;50.780;7.726;2023-04-25T11:58:03;11.30;98.30
11824;DHT22;5969;50.780;7.726;2023-04-25T12:00:45;11.30;98.30
11824;DHT22;5969;50.780;7.726;2023-04-25T12:03:25;11.00;99.10
11824;DHT22;5969;50.780;7.726;2023-04-25T12:06:03;10.70;99.30
11824;DHT22;5969;50.780;7.726;2023-04-25T12:08:34;10.30;99.30
11824;DHT22;5969;50.780;7.726;2023-04-25T12:11:03;9.90;99.90
11824;DHT22;5969;50.780;7.726;2023-04-25T12:13:31;9.60;99.90
11824;DHT22;5969;50.780;7.726;2023-04-25T12:16:03;9.40;99.90
11824;DHT22;5969;50.780;7.726;2023-04-25T12:18:31;9.30;99.90
11824;DHT22;5969;50.780;7.726;2023-04-25T12:21:04;9.20;99.90
11824;DHT22;5969;50.780;7.726;2023-04-25T12:23:33;9.40;99.90
11824;DHT22;5969;50.780;7.726;2023-04-25T12:26:04;9.50;99.90
11824;DHT22;5969;50.780;7.726;2023-04-25T12:28:33;9.50;99.50
11824;DHT22;5969;50.780;7.726;2023-04-25T12:31:04;9.50;99.90
11824;DHT22;5969;50.780;7.726;2023-04-25T12:33:34;9.80;99.90
11824;DHT22;5969;50.780;7.726;2023-04-25T12:36:06;9.70;99.00
11824;DHT22;5969;50.780;7.726;2023-04-25T12:38:39;9.80;99.40
11824;DHT22;5969;50.780;7.726;2023-04-25T12:41:09;10.00;98.10
11824;DHT22;5969;50.780;7.726;2023-04-25T12:43:44;10.30;98.30
11824;DHT22;5969;50.780;7.726;2023-04-25T12:46:27;10.60;98.40
11824;DHT22;5969;50.780;7.726;2023-04-25T12:48:58;10.70;96.80
11824;DHT22;5969;50.780;7.726;2023-04-25T12:51:32;11.50;97.00
11824;DHT22;5969;50.780;7.726;2023-04-25T12:54:06;12.30;95.10
11824;DHT22;5969;50.780;7.726;2023-04-25T12:56:40;12.50;94.40
11824;DHT22;5969;50.780;7.726;2023-04-25T12:59:11;12.90;95.30
11824;DHT22;5969;50.780;7.726;2023-04-25T13:01:48;12.70;94.60
11824;DHT22;5969;50.780;7.726;2023-04-25T13:04:20;13.10;95.70
11824;DHT22;5969;50.780;7.726;2023-04-25T13:06:57;12.90;94.20
11824;DHT22;5969;50.780;7.726;2023-04-25T13:09:29;12.20;95.20
11824;DHT22;5969;50.780;7.726;2023-04-25T13:12:02;11.50;96.20
11824;DHT22;5969;50.780;7.726;2023-04-25T13:14:33;11.40;96.00
11824;DHT22;5969;50.780;7.726;2023-04-25T13:17:09;11.70;97.20
11824;DHT22;5969;50.780;7.726;2023-04-25T13:19:46;11.90;96.60
11824;DHT22;5969;50.780;7.726;2023-04-25T13:22:16;12.50;96.80
11824;DHT22;5969;50.780;7.726;2023-04-25T13:24:46;12.90;96.60
11824;DHT22;5969;50.780;7.726;2023-04-25T13:27:18;13.20;94.40
11824;DHT22;5969;50.780;7.726;2023-04-25T13:30:01;13.20;93.20
11824;DHT22;5969;50.780;7.726;2023-04-25T13:32:35;12.90;92.10
11824;DHT22;5969;50.780;7.726;2023-04-25T13:35:08;12.60;90.90
11824;DHT22;5969;50.780;7.726;2023-04-25T13:37:51;12.90;93.00
11824;DHT22;5969;50.780;7.726;2023-04-25T13:40:25;13.10;91.80
11824;DHT22;5969;50.780;7.726;2023-04-25T13:42:57;12.90;92.10
11824;DHT22;5969;50.780;7.726;2023-04-25T13:45:27;13.60;92.20
11824;DHT22;5969;50.780;7.726;2023-04-25T13:48:02;14.20;91.10
11824;DHT22;5969;50.780;7.726;2023-04-25T13:50:33;13.70;88.30
11824;DHT22;5969;50.780;7.726;2023-04-25T13:53:05;12.90;89.30
11824;DHT22;5969;50.780;7.726;2023-04-25T13:55:35;12.30;91.40
11824;DHT22;5969;50.780;7.726;2023-04-25T13:58:05;12.10;92.30
11824;DHT22;5969;50.780;7.726;2023-04-25T14:00:50;12.30;91.80
11824;DHT22;5969;50.780;7.726;2023-04-25T14:03:21;12.60;91.60
11824;DHT22;5969;50.780;7.726;2023-04-25T14:06:02;14.60;93.80
11824;DHT22;5969;50.780;7.726;2023-04-25T14:08:43;18.30;94.10
11824;DHT22;5969;50.780;7.726;2023-04-25T14:14:23;17.40;84.40
11824;DHT22;5969;50.780;7.726;2023-04-25T14:16:55;15.40;86.50
11824;DHT22;5969;50.780;7.726;2023-04-25T14:19:25;14.30;89.50
11824;DHT22;5969;50.780;7.726;2023-04-25T14:21:56;13.50;90.00
11824;DHT22;5969;50.780;7.726;2023-04-25T15:03:47;21.80;76.80
11824;DHT22;5969;50.780;7.726;2023-04-25T15:06:14;21.40;80.20
11824;DHT22;5969;50.780;7.726;2023-04-25T15:08:41;21.30;84.80
11824;DHT22;5969;50.780;7.726;2023-04-25T15:11:08;21.90;77.50
11824;DHT22;5969;50.780;7.726;2023-04-25T15:13:36;22.70;70.70
11824;DHT22;5969;50.780;7.726;2023-04-25T15:16:04;22.90;75.70
11824;DHT22;5969;50.780;7.726;2023-04-25T15:18:31;23.70;73.50
11824;DHT22;5969;50.780;7.726;2023-04-25T15:20:59;23.00;73.40
11824;DHT22;5969;50.780;7.726;2023-04-25T15:23:26;22.30;72.50
11824;DHT22;5969;50.780;7.726;2023-04-25T15:25:53;22.30;70.40
11824;DHT22;5969;50.780;7.726;2023-04-25T15:28:20;22.30;71.10
11824;DHT22;5969;50.780;7.726;2023-04-25T15:30:46;22.70;67.90
11824;DHT22;5969;50.780;7.726;2023-04-25T15:33:13;21.10;69.80
11824;DHT22;5969;50.780;7.726;2023-04-25T15:35:40;19.50;73.20
11824;DHT22;5969;50.780;7.726;2023-04-25T15:38:08;20.20;72.60
11824;DHT22;5969;50.780;7.726;2023-04-25T15:40:36;21.20;72.40
11824;DHT22;5969;50.780;7.726;2023-04-25T15:43:02;21.80;71.00
11824;DHT22;5969;50.780;7.726;2023-04-25T15:45:29;22.30;73.00
11824;DHT22;5969;50.780;7.726;2023-04-25T15:47:57;22.50;67.30
11824;DHT22;5969;50.780;7.726;2023-04-25T15:50:24;21.60;69.60
11824;DHT22;5969;50.780;7.726;2023-04-25T15:52:51;20.80;72.40
11824;DHT22;5969;50.780;7.726;2023-04-25T15:55:19;21.30;70.00
11824;DHT22;5969;50.780;7.726;2023-04-25T15:57:48;21.50;70.60
11824;DHT22;5969;50.780;7.726;2023-04-25T16:00:16;19.90;70.00
11824;DHT22;5969;50.780;7.726;2023-04-25T16:02:45;18.20;73.70
11824;DHT22;5969;50.780;7.726;2023-04-25T16:05:12;16.30;79.00
11824;DHT22;5969;50.780;7.726;2023-04-25T16:07:41;14.60;82.90
11824;DHT22;5969;50.780;7.726;2023-04-25T16:10:09;13.70;86.50
11824;DHT22;5969;50.780;7.726;2023-04-25T16:12:38;12.70;89.40
11824;DHT22;5969;50.780;7.726;2023-04-25T16:15:05;12.30;90.80
11824;DHT22;5969;50.780;7.726;2023-04-25T16:17:33;11.80;90.60
11824;DHT22;5969;50.780;7.726;2023-04-25T16:19:59;11.70;91.70
11824;DHT22;5969;50.780;7.726;2023-04-25T16:22:34;11.60;91.80
11824;DHT22;5969;50.780;7.726;2023-04-25T16:25:01;11.70;91.70
11824;DHT22;5969;50.780;7.726;2023-04-25T16:27:27;11.80;91.30
11824;DHT22;5969;50.780;7.726;2023-04-25T16:29:56;12.10;91.80
11824;DHT22;5969;50.780;7.726;2023-04-25T16:32:22;12.90;90.80
11824;DHT22;5969;50.780;7.726;2023-04-25T16:34:49;13.60;90.60
11824;DHT22;5969;50.780;7.726;2023-04-25T16:37:16;15.00;89.60
11824;DHT22;5969;50.780;7.726;2023-04-25T16:39:42;16.50;87.90
11824;DHT22;5969;50.780;7.726;2023-04-25T16:42:09;17.60;82.90
11824;DHT22;5969;50.780;7.726;2023-04-25T16:44:36;18.20;82.40
11824;DHT22;5969;50.780;7.726;2023-04-25T16:47:04;18.70;80.10
11824;DHT22;5969;50.780;7.726;2023-04-25T16:49:31;18.60;80.50
11824;DHT22;5969;50.780;7.726;2023-04-25T16:51:58;18.20;77.80
11824;DHT22;5969;50.780;7.726;2023-04-25T16:54:24;17.80;78.50
11824;DHT22;5969;50.780;7.726;2023-04-25T16:56:51;17.70;82.20
11824;DHT22;5969;50.780;7.726;2023-04-25T16:59:18;17.40;82.20
11824;DHT22;5969;50.780;7.726;2023-04-25T17:01:45;16.80;80.50
11824;DHT22;5969;50.780;7.726;2023-04-25T17:04:13;16.50;81.30
11824;DHT22;5969;50.780;7.726;2023-04-25T17:06:40;15.60;83.10
11824;DHT22;5969;50.780;7.726;2023-04-25T17:09:07;14.70;84.70
11824;DHT22;5969;50.780;7.726;2023-04-25T17:11:35;13.80;85.70
11824;DHT22;5969;50.780;7.726;2023-04-25T17:14:02;12.80;87.00
11824;DHT22;5969;50.780;7.726;2023-04-25T17:16:33;12.20;88.90
11824;DHT22;5969;50.780;7.726;2023-04-25T17:19:01;11.60;88.90
11824;DHT22;5969;50.780;7.726;2023-04-25T17:21:29;11.20;90.50
11824;DHT22;5969;50.780;7.726;2023-04-25T17:23:56;11.00;90.70
11824;DHT22;5969;50.780;7.726;2023-04-25T17:26:24;10.80;90.30
11824;DHT22;5969;50.780;7.726;2023-04-25T17:28:51;10.60;90.80
11824;DHT22;5969;50.780;7.726;2023-04-25T17:31:18;10.60;91.90
11824;DHT22;5969;50.780;7.726;2023-04-25T17:33:48;10.80;92.20
11824;DHT22;5969;50.780;7.726;2023-04-25T17:36:16;11.20;91.40
11824;DHT22;5969;50.780;7.726;2023-04-25T17:38:46;11.80;91.40
11824;DHT22;5969;50.780;7.726;2023-04-25T17:41:13;12.10;90.00
11824;DHT22;5969;50.780;7.726;2023-04-25T17:43:40;12.00;90.00
11824;DHT22;5969;50.780;7.726;2023-04-25T17:46:07;11.90;90.70
11824;DHT22;5969;50.780;7.726;2023-04-25T17:48:34;11.10;90.60
11824;DHT22;5969;50.780;7.726;2023-04-25T17:51:00;11.00;90.60
11824;DHT22;5969;50.780;7.726;2023-04-25T17:53:27;10.70;91.30
11824;DHT22;5969;50.780;7.726;2023-04-25T17:55:55;10.50;91.60
11824;DHT22;5969;50.780;7.726;2023-04-25T17:58:23;10.40;92.10
11824;DHT22;5969;50.780;7.726;2023-04-25T18:00:50;10.20;91.60
11824;DHT22;5969;50.780;7.726;2023-04-25T18:03:17;10.00;91.70
11824;DHT22;5969;50.780;7.726;2023-04-25T18:05:43;9.80;92.10
11824;DHT22;5969;50.780;7.726;2023-04-25T18:08:10;9.70;92.30
11824;DHT22;5969;50.780;7.726;2023-04-25T18:10:37;9.70;91.60
11824;DHT22;5969;50.780;7.726;2023-04-25T18:13:05;9.50;92.10
11824;DHT22;5969;50.780;7.726;2023-04-25T18:15:33;9.40;92.40
11824;DHT22;5969;50.780;7.726;2023-04-25T18:18:00;9.40;92.50
11824;DHT22;5969;50.780;7.726;2023-04-25T18:20:34;9.40;92.20
11824;DHT22;5969;50.780;7.726;2023-04-25T18:23:00;9.30;92.20
11824;DHT22;5969;50.780;7.726;2023-04-25T18:25:27;9.20;93.20
11824;DHT22;5969;50.780;7.726;2023-04-25T18:27:54;9.10;93.30
11824;DHT22;5969;50.780;7.726;2023-04-25T18:30:23;9.10;93.90
11824;DHT22;5969;50.780;7.726;2023-04-25T18:32:49;9.10;93.80
11824;DHT22;5969;50.780;7.726;2023-04-25T18:35:16;8.90;94.10
11824;DHT22;5969;50.780;7.726;2023-04-25T18:37:43;8.80;93.90
11824;DHT22;5969;50.780;7.726;2023-04-25T18:40:10;8.80;94.20
11824;DHT22;5969;50.780;7.726;2023-04-25T18:42:40;8.70;93.70
11824;DHT22;5969;50.780;7.726;2023-04-25T18:45:07;8.60;94.00
11824;DHT22;5969;50.780;7.726;2023-04-25T18:47:36;8.40;94.20
11824;DHT22;5969;50.780;7.726;2023-04-25T18:50:03;8.30;94.60
11824;DHT22;5969;50.780;7.726;2023-04-25T18:52:31;8.30;94.70
11824;DHT22;5969;50.780;7.726;2023-04-25T18:54:57;8.20;94.20
11824;DHT22;5969;50.780;7.726;2023-04-25T18:57:24;8.10;95.00
11824;DHT22;5969;50.780;7.726;2023-04-25T18:59:51;8.10;94.90
11824;DHT22;5969;50.780;7.726;2023-04-25T19:02:18;8.10;94.70
11824;DHT22;5969;50.780;7.726;2023-04-25T19:04:48;7.90;95.00
11824;DHT22;5969;50.780;7.726;2023-04-25T19:07:15;7.80;94.90
11824;DHT22;5969;50.780;7.726;2023-04-25T19:09:42;7.70;95.00
11824;DHT22;5969;50.780;7.726;2023-04-25T19:12:09;7.70;95.20
11824;DHT22;5969;50.780;7.726;2023-04-25T19:14:35;7.60;95.50
11824;DHT22;5969;50.780;7.726;2023-04-25T19:17:02;7.50;95.60
11824;DHT22;5969;50.780;7.726;2023-04-25T19:19:29;7.60;95.90
11824;DHT22;5969;50.780;7.726;2023-04-25T19:21:58;7.50;95.90
11824;DHT22;5969;50.780;7.726;2023-04-25T19:24:26;7.50;96.00
11824;DHT22;5969;50.780;7.726;2023-04-25T19:26:53;7.50;95.90
11824;DHT22;5969;50.780;7.726;2023-04-25T19:29:19;7.50;95.70
11824;DHT22;5969;50.780;7.726;2023-04-25T19:31:46;7.50;96.20
11824;DHT22;5969;50.780;7.726;2023-04-25T19:34:13;7.60;96.00
11824;DHT22;5969;50.780;7.726;2023-04-25T19:36:41;7.70;96.60
11824;DHT22;5969;50.780;7.726;2023-04-25T19:39:09;7.70;96.30
11824;DHT22;5969;50.780;7.726;2023-04-25T19:41:37;7.60;96.30
11824;DHT22;5969;50.780;7.726;2023-04-25T19:44:06;7.50;96.20
11824;DHT22;5969;50.780;7.726;2023-04-25T19:46:34;7.50;96.30
11824;DHT22;5969;50.780;7.726;2023-04-25T19:49:01;7.50;96.50
11824;DHT22;5969;50.780;7.726;2023-04-25T19:51:30;7.40;96.60
11824;DHT22;5969;50.780;7.726;2023-04-25T19:53:57;7.30;96.50
11824;DHT22;5969;50.780;7.726;2023-04-25T19:56:25;7.30;96.80
11824;DHT22;5969;50.780;7.726;2023-04-25T19:58:52;7.30;96.60
11824;DHT22;5969;50.780;7.726;2023-04-25T20:01:19;7.20;96.90
11824;DHT22;5969;50.780;7.726;2023-04-25T20:03:47;7.20;97.10
11824;DHT22;5969;50.780;7.726;2023-04-25T20:06:15;7.10;97.20
11824;DHT22;5969;50.780;7.726;2023-04-25T20:08:42;7.10;97.20
11824;DHT22;5969;50.780;7.726;2023-04-25T20:11:09;7.00;97.30
11824;DHT22;5969;50.780;7.726;2023-04-25T20:13:37;6.90;97.40
11824;DHT22;5969;50.780;7.726;2023-04-25T20:16:04;6.90;97.50
11824;DHT22;5969;50.780;7.726;2023-04-25T20:18:31;6.90;97.80
11824;DHT22;5969;50.780;7.726;2023-04-25T20:20:58;6.90;98.10
11824;DHT22;5969;50.780;7.726;2023-04-25T20:23:26;6.90;97.90
11824;DHT22;5969;50.780;7.726;2023-04-25T20:25:53;6.90;98.20
11824;DHT22;5969;50.780;7.726;2023-04-25T20:28:20;6.80;98.10
11824;DHT22;5969;50.780;7.726;2023-04-25T20:30:49;6.70;98.10
11824;DHT22;5969;50.780;7.726;2023-04-25T20:33:15;6.70;99.00
11824;DHT22;5969;50.780;7.726;2023-04-25T20:35:42;6.60;98.60
11824;DHT22;5969;50.780;7.726;2023-04-25T20:38:09;6.70;98.80
11824;DHT22;5969;50.780;7.726;2023-04-25T20:40:36;6.70;99.10
11824;DHT22;5969;50.780;7.726;2023-04-25T20:43:02;6.70;99.40
11824;DHT22;5969;50.780;7.726;2023-04-25T20:45:30;6.80;99.30
11824;DHT22;5969;50.780;7.726;2023-04-25T20:48:00;6.80;99.40
11824;DHT22;5969;50.780;7.726;2023-04-25T20:50:27;6.90;99.50
11824;DHT22;5969;50.780;7.726;2023-04-25T20:52:54;6.80;98.80
11824;DHT22;5969;50.780;7.726;2023-04-25T20:55:20;6.80;98.60
11824;DHT22;5969;50.780;7.726;2023-04-25T20:57:47;6.80;98.80
11824;DHT22;5969;50.780;7.726;2023-04-25T21:00:14;6.70;99.00
11824;DHT22;5969;50.780;7.726;2023-04-25T21:02:43;6.60;99.10
11824;DHT22;5969;50.780;7.726;2023-04-25T21:05:12;6.60;99.50
11824;DHT22;5969;50.780;7.726;2023-04-25T21:07:39;6.50;99.90
11824;DHT22;5969;50.780;7.726;2023-04-25T21:10:06;6.40;99.90
11824;DHT22;5969;50.780;7.726;2023-04-25T21:12:33;6.40;99.90
11824;DHT22;5969;50.780;7.726;2023-04-25T21:15:00;6.30;99.90
11824;DHT22;5969;50.780;7.726;2023-04-25T21:17:28;6.20;99.90
11824;DHT22;5969;50.780;7.726;2023-04-25T21:19:55;6.10;99.90
11824;DHT22;5969;50.780;7.726;2023-04-25T21:22:23;6.10;99.90
11824;DHT22;5969;50.780;7.726;2023-04-25T21:24:50;6.00;99.90
11824;DHT22;5969;50.780;7.726;2023-04-25T21:27:18;6.00;99.90
11824;DHT22;5969;50.780;7.726;2023-04-25T21:29:45;5.90;99.90
11824;DHT22;5969;50.780;7.726;2023-04-25T21:32:12;5.90;99.90
11824;DHT22;5969;50.780;7.726;2023-04-25T21:34:41;5.80;99.90
11824;DHT22;5969;50.780;7.726;2023-04-25T21:37:09;5.80;99.90
11824;DHT22;5969;50.780;7.726;2023-04-25T21:39:37;5.80;99.90
11824;DHT22;5969;50.780;7.726;2023-04-25T21:42:04;5.80;99.90
11824;DHT22;5969;50.780;7.726;2023-04-25T21:44:33;5.80;99.90
11824;DHT22;5969;50.780;7.726;2023-04-25T21:47:00;5.70;99.90
11824;DHT22;5969;50.780;7.726;2023-04-25T21:49:29;5.60;99.90
11824;DHT22;5969;50.780;7.726;2023-04-25T21:51:57;5.60;99.90
11824;DHT22;5969;50.780;7.726;2023-04-25T21:54:24;5.50;99.90
11824;DHT22;5969;50.780;7.726;2023-04-25T21:56:52;5.50;99.90
11824;DHT22;5969;50.780;7.726;2023-04-25T21:59:21;5.40;99.90
11824;DHT22;5969;50.780;7.726;2023-04-25T22:01:48;5.40;99.90
11824;DHT22;5969;50.780;7.726;2023-04-25T22:04:14;5.40;99.90
11824;DHT22;5969;50.780;7.726;2023-04-25T22:06:41;5.40;99.90
11824;DHT22;5969;50.780;7.726;2023-04-25T22:09:08;5.30;99.90
11824;DHT22;5969;50.780;7.726;2023-04-25T22:11:34;5.30;99.90
11824;DHT22;5969;50.780;7.726;2023-04-25T22:14:02;5.30;99.90
11824;DHT22;5969;50.780;7.726;2023-04-25T22:16:30;5.30;99.90
11824;DHT22;5969;50.780;7.726;2023-04-25T22:18:56;5.30;99.90
11824;DHT22;5969;50.780;7.726;2023-04-25T22:21:23;5.30;99.90
11824;DHT22;5969;50.780;7.726;2023-04-25T22:23:50;5.30;99.90
11824;DHT22;5969;50.780;7.726;2023-04-25T22:26:17;5.30;99.90
11824;DHT22;5969;50.780;7.726;2023-04-25T22:28:45;5.30;99.90
11824;DHT22;5969;50.780;7.726;2023-04-25T22:31:13;5.40;99.90
11824;DHT22;5969;50.780;7.726;2023-04-25T22:33:40;5.40;99.90
11824;DHT22;5969;50.780;7.726;2023-04-25T22:36:07;5.30;99.90
11824;DHT22;5969;50.780;7.726;2023-04-25T22:38:34;5.30;99.90
11824;DHT22;5969;50.780;7.726;2023-04-25T22:41:03;5.40;99.90
11824;DHT22;5969;50.780;7.726;2023-04-25T22:43:29;5.40;99.90
11824;DHT22;5969;50.780;7.726;2023-04-25T22:45:56;5.40;99.90
11824;DHT22;5969;50.780;7.726;2023-04-25T22:48:25;5.50;99.90
11824;DHT22;5969;50.780;7.726;2023-04-25T22:51:00;5.50;99.90
11824;DHT22;5969;50.780;7.726;2023-04-25T22:53:27;5.60;99.90
11824;DHT22;5969;50.780;7.726;2023-04-25T22:55:55;5.60;99.90
11824;DHT22;5969;50.780;7.726;2023-04-25T22:58:22;5.50;99.90
